sensor_id;sensor_type;location;lat;lon;timestamp;P1;durP1;ratioP1;P2;durP2;ratioP2
82985;SDS011;72786;53.546;9.910;2023-10-19T00:01:08;10.15;;;5.05;;
82985;SDS011;72786;53.546;9.910;2023-10-19T00:03:36;10.07;;;4.90;;
82985;SDS011;72786;53.546;9.910;2023-10-19T00:06:03;8.82;;;4.70;;
82985;SDS011;72786;53.546;9.910;2023-10-19T00:08:31;11.25;;;5.35;;
82985;SDS011;72786;53.546;9.910;2023-10-19T00:11:10;11.43;;;5.75;;
82985;SDS011;72786;53.546;9.910;2023-10-19T00:13:47;10.18;;;4.85;;
82985;SDS011;72786;53.546;9.910;2023-10-19T00:16:20;11.57;;;5.93;;
82985;SDS011;72786;53.546;9.910;2023-10-19T00:18:52;10.25;;;5.30;;
82985;SDS011;72786;53.546;9.910;2023-10-19T00:21:19;10.25;;;5.13;;
82985;SDS011;72786;53.546;9.910;2023-10-19T00:23:46;11.68;;;5.53;;
82985;SDS011;72786;53.546;9.910;2023-10-19T00:26:15;9.45;;;4.95;;
82985;SDS011;72786;53.546;9.910;2023-10-19T00:28:52;11.05;;;5.13;;
82985;SDS011;72786;53.546;9.910;2023-10-19T00:31:22;10.43;;;4.78;;
82985;SDS011;72786;53.546;9.910;2023-10-19T00:33:49;10.80;;;5.90;;
82985;SDS011;72786;53.546;9.910;2023-10-19T00:36:18;12.25;;;5.60;;
82985;SDS011;72786;53.546;9.910;2023-10-19T00:38:47;13.43;;;6.70;;
82985;SDS011;72786;53.546;9.910;2023-10-19T00:41:18;11.50;;;5.68;;
82985;SDS011;72786;53.546;9.910;2023-10-19T00:43:48;10.68;;;5.43;;
82985;SDS011;72786;53.546;9.910;2023-10-19T00:46:24;10.85;;;5.35;;
82985;SDS011;72786;53.546;9.910;2023-10-19T00:49:02;12.20;;;6.15;;
82985;SDS011;72786;53.546;9.910;2023-10-19T00:51:35;11.95;;;5.55;;
82985;SDS011;72786;53.546;9.910;2023-10-19T00:54:05;11.82;;;6.15;;
82985;SDS011;72786;53.546;9.910;2023-10-19T00:56:40;10.98;;;5.43;;
82985;SDS011;72786;53.546;9.910;2023-10-19T00:59:12;14.85;;;6.05;;
82985;SDS011;72786;53.546;9.910;2023-10-19T01:01:41;11.80;;;5.88;;
82985;SDS011;72786;53.546;9.910;2023-10-19T01:04:14;10.15;;;5.50;;
82985;SDS011;72786;53.546;9.910;2023-10-19T01:06:49;10.82;;;5.80;;
82985;SDS011;72786;53.546;9.910;2023-10-19T01:09:27;14.05;;;6.30;;
82985;SDS011;72786;53.546;9.910;2023-10-19T01:11:55;12.15;;;6.35;;
82985;SDS011;72786;53.546;9.910;2023-10-19T01:14:27;12.23;;;6.72;;
82985;SDS011;72786;53.546;9.910;2023-10-19T01:16:54;11.10;;;5.65;;
82985;SDS011;72786;53.546;9.910;2023-10-19T01:19:23;10.20;;;5.82;;
82985;SDS011;72786;53.546;9.910;2023-10-19T01:21:50;12.02;;;6.10;;
82985;SDS011;72786;53.546;9.910;2023-10-19T01:24:27;13.93;;;6.38;;
82985;SDS011;72786;53.546;9.910;2023-10-19T01:27:06;10.90;;;5.80;;
82985;SDS011;72786;53.546;9.910;2023-10-19T01:29:36;11.60;;;6.30;;
82985;SDS011;72786;53.546;9.910;2023-10-19T01:32:07;11.05;;;5.53;;
82985;SDS011;72786;53.546;9.910;2023-10-19T01:34:38;10.27;;;5.75;;
82985;SDS011;72786;53.546;9.910;2023-10-19T01:37:04;11.07;;;5.30;;
82985;SDS011;72786;53.546;9.910;2023-10-19T01:39:34;10.65;;;5.57;;
82985;SDS011;72786;53.546;9.910;2023-10-19T01:42:05;12.43;;;6.50;;
82985;SDS011;72786;53.546;9.910;2023-10-19T01:44:33;11.63;;;5.88;;
82985;SDS011;72786;53.546;9.910;2023-10-19T01:47:02;13.43;;;6.80;;
82985;SDS011;72786;53.546;9.910;2023-10-19T01:49:33;9.98;;;5.35;;
82985;SDS011;72786;53.546;9.910;2023-10-19T01:51:59;11.20;;;6.20;;
82985;SDS011;72786;53.546;9.910;2023-10-19T01:54:27;9.70;;;5.22;;
82985;SDS011;72786;53.546;9.910;2023-10-19T01:56:55;10.02;;;5.57;;
82985;SDS011;72786;53.546;9.910;2023-10-19T01:59:25;10.80;;;5.55;;
82985;SDS011;72786;53.546;9.910;2023-10-19T02:01:54;12.45;;;5.90;;
82985;SDS011;72786;53.546;9.910;2023-10-19T02:04:21;13.55;;;6.30;;
82985;SDS011;72786;53.546;9.910;2023-10-19T02:06:48;13.05;;;5.80;;
82985;SDS011;72786;53.546;9.910;2023-10-19T02:09:16;11.50;;;5.85;;
82985;SDS011;72786;53.546;9.910;2023-10-19T02:11:45;10.93;;;5.72;;
82985;SDS011;72786;53.546;9.910;2023-10-19T02:14:14;11.32;;;6.13;;
82985;SDS011;72786;53.546;9.910;2023-10-19T02:16:43;12.82;;;5.38;;
82985;SDS011;72786;53.546;9.910;2023-10-19T02:19:13;11.45;;;6.20;;
82985;SDS011;72786;53.546;9.910;2023-10-19T02:21:40;11.77;;;5.55;;
82985;SDS011;72786;53.546;9.910;2023-10-19T02:24:07;11.05;;;5.75;;
82985;SDS011;72786;53.546;9.910;2023-10-19T02:26:34;15.38;;;6.35;;
82985;SDS011;72786;53.546;9.910;2023-10-19T02:29:04;11.73;;;5.80;;
82985;SDS011;72786;53.546;9.910;2023-10-19T02:31:34;12.02;;;6.60;;
82985;SDS011;72786;53.546;9.910;2023-10-19T02:34:04;13.90;;;6.22;;
82985;SDS011;72786;53.546;9.910;2023-10-19T02:36:31;12.45;;;5.90;;
82985;SDS011;72786;53.546;9.910;2023-10-19T02:38:58;12.45;;;5.95;;
82985;SDS011;72786;53.546;9.910;2023-10-19T02:41:27;11.30;;;5.93;;
82985;SDS011;72786;53.546;9.910;2023-10-19T02:43:53;13.38;;;6.72;;
82985;SDS011;72786;53.546;9.910;2023-10-19T02:46:28;12.77;;;6.43;;
82985;SDS011;72786;53.546;9.910;2023-10-19T02:48:55;12.55;;;6.55;;
82985;SDS011;72786;53.546;9.910;2023-10-19T02:51:21;12.30;;;6.60;;
82985;SDS011;72786;53.546;9.910;2023-10-19T02:53:48;14.07;;;6.15;;
82985;SDS011;72786;53.546;9.910;2023-10-19T02:56:15;10.93;;;6.05;;
82985;SDS011;72786;53.546;9.910;2023-10-19T02:58:45;11.38;;;6.20;;
82985;SDS011;72786;53.546;9.910;2023-10-19T03:01:16;11.75;;;6.05;;
82985;SDS011;72786;53.546;9.910;2023-10-19T03:03:48;13.85;;;6.63;;
82985;SDS011;72786;53.546;9.910;2023-10-19T03:06:22;11.88;;;6.10;;
82985;SDS011;72786;53.546;9.910;2023-10-19T03:08:49;11.93;;;6.03;;
82985;SDS011;72786;53.546;9.910;2023-10-19T03:11:40;13.30;;;7.03;;
82985;SDS011;72786;53.546;9.910;2023-10-19T03:14:08;14.10;;;6.22;;
82985;SDS011;72786;53.546;9.910;2023-10-19T03:16:38;13.18;;;6.65;;
82985;SDS011;72786;53.546;9.910;2023-10-19T03:19:08;14.55;;;7.57;;
82985;SDS011;72786;53.546;9.910;2023-10-19T03:21:35;14.45;;;6.80;;
82985;SDS011;72786;53.546;9.910;2023-10-19T03:24:15;15.70;;;8.10;;
82985;SDS011;72786;53.546;9.910;2023-10-19T03:26:50;16.77;;;7.70;;
82985;SDS011;72786;53.546;9.910;2023-10-19T03:29:17;15.48;;;7.10;;
82985;SDS011;72786;53.546;9.910;2023-10-19T03:31:48;15.90;;;7.97;;
82985;SDS011;72786;53.546;9.910;2023-10-19T03:34:17;19.90;;;8.38;;
82985;SDS011;72786;53.546;9.910;2023-10-19T03:36:43;16.10;;;8.50;;
82985;SDS011;72786;53.546;9.910;2023-10-19T03:39:10;16.60;;;8.48;;
82985;SDS011;72786;53.546;9.910;2023-10-19T03:41:43;17.95;;;8.35;;
82985;SDS011;72786;53.546;9.910;2023-10-19T03:44:11;15.77;;;8.05;;
82985;SDS011;72786;53.546;9.910;2023-10-19T03:46:53;18.80;;;9.60;;
82985;SDS011;72786;53.546;9.910;2023-10-19T03:49:21;19.63;;;8.52;;
82985;SDS011;72786;53.546;9.910;2023-10-19T03:51:48;20.60;;;9.55;;
82985;SDS011;72786;53.546;9.910;2023-10-19T03:54:25;18.73;;;9.27;;
82985;SDS011;72786;53.546;9.910;2023-10-19T03:56:53;20.88;;;9.05;;
82985;SDS011;72786;53.546;9.910;2023-10-19T03:59:22;20.25;;;10.05;;
82985;SDS011;72786;53.546;9.910;2023-10-19T04:01:55;20.35;;;9.50;;
82985;SDS011;72786;53.546;9.910;2023-10-19T04:04:22;21.33;;;9.35;;
82985;SDS011;72786;53.546;9.910;2023-10-19T04:06:49;18.80;;;9.07;;
82985;SDS011;72786;53.546;9.910;2023-10-19T04:09:20;20.65;;;9.80;;
82985;SDS011;72786;53.546;9.910;2023-10-19T04:11:46;19.08;;;8.40;;
82985;SDS011;72786;53.546;9.910;2023-10-19T04:14:17;19.40;;;8.95;;
82985;SDS011;72786;53.546;9.910;2023-10-19T04:16:44;22.42;;;10.27;;
82985;SDS011;72786;53.546;9.910;2023-10-19T04:19:11;20.00;;;9.27;;
82985;SDS011;72786;53.546;9.910;2023-10-19T04:21:39;20.15;;;9.00;;
82985;SDS011;72786;53.546;9.910;2023-10-19T04:24:10;23.20;;;9.70;;
82985;SDS011;72786;53.546;9.910;2023-10-19T04:26:37;23.05;;;10.15;;
82985;SDS011;72786;53.546;9.910;2023-10-19T04:29:04;21.63;;;9.77;;
82985;SDS011;72786;53.546;9.910;2023-10-19T04:31:37;21.77;;;9.88;;
82985;SDS011;72786;53.546;9.910;2023-10-19T04:34:07;20.00;;;9.82;;
82985;SDS011;72786;53.546;9.910;2023-10-19T04:36:36;22.08;;;10.70;;
82985;SDS011;72786;53.546;9.910;2023-10-19T04:39:02;22.63;;;9.73;;
82985;SDS011;72786;53.546;9.910;2023-10-19T04:41:29;23.02;;;10.02;;
82985;SDS011;72786;53.546;9.910;2023-10-19T04:43:55;22.67;;;9.55;;
82985;SDS011;72786;53.546;9.910;2023-10-19T04:46:24;25.08;;;10.10;;
82985;SDS011;72786;53.546;9.910;2023-10-19T04:48:51;21.65;;;10.27;;
82985;SDS011;72786;53.546;9.910;2023-10-19T04:51:18;24.02;;;10.63;;
82985;SDS011;72786;53.546;9.910;2023-10-19T04:53:44;22.17;;;10.18;;
82985;SDS011;72786;53.546;9.910;2023-10-19T04:56:10;19.25;;;9.60;;
82985;SDS011;72786;53.546;9.910;2023-10-19T04:58:38;20.33;;;10.63;;
82985;SDS011;72786;53.546;9.910;2023-10-19T05:01:05;22.42;;;10.30;;
82985;SDS011;72786;53.546;9.910;2023-10-19T05:03:31;23.00;;;10.32;;
82985;SDS011;72786;53.546;9.910;2023-10-19T05:05:59;21.73;;;10.23;;
82985;SDS011;72786;53.546;9.910;2023-10-19T05:08:25;25.63;;;10.25;;
82985;SDS011;72786;53.546;9.910;2023-10-19T05:10:54;22.35;;;10.85;;
82985;SDS011;72786;53.546;9.910;2023-10-19T05:13:23;22.15;;;10.30;;
82985;SDS011;72786;53.546;9.910;2023-10-19T05:15:52;25.38;;;10.65;;
82985;SDS011;72786;53.546;9.910;2023-10-19T05:18:22;26.88;;;10.68;;
82985;SDS011;72786;53.546;9.910;2023-10-19T05:20:49;25.17;;;10.30;;
82985;SDS011;72786;53.546;9.910;2023-10-19T05:23:22;21.25;;;10.30;;
82985;SDS011;72786;53.546;9.910;2023-10-19T05:25:52;19.77;;;9.25;;
82985;SDS011;72786;53.546;9.910;2023-10-19T05:28:20;23.67;;;10.77;;
82985;SDS011;72786;53.546;9.910;2023-10-19T05:30:48;22.65;;;11.48;;
82985;SDS011;72786;53.546;9.910;2023-10-19T05:33:16;23.67;;;10.32;;
82985;SDS011;72786;53.546;9.910;2023-10-19T05:35:42;24.00;;;10.77;;
82985;SDS011;72786;53.546;9.910;2023-10-19T05:38:09;21.55;;;10.20;;
82985;SDS011;72786;53.546;9.910;2023-10-19T05:40:36;23.33;;;10.80;;
82985;SDS011;72786;53.546;9.910;2023-10-19T05:43:02;23.42;;;10.80;;
82985;SDS011;72786;53.546;9.910;2023-10-19T05:45:29;21.63;;;10.40;;
82985;SDS011;72786;53.546;9.910;2023-10-19T05:47:55;23.50;;;9.73;;
82985;SDS011;72786;53.546;9.910;2023-10-19T05:50:24;22.88;;;10.32;;
82985;SDS011;72786;53.546;9.910;2023-10-19T05:52:51;23.25;;;10.73;;
82985;SDS011;72786;53.546;9.910;2023-10-19T05:55:21;25.27;;;10.90;;
82985;SDS011;72786;53.546;9.910;2023-10-19T05:57:48;23.08;;;9.73;;
82985;SDS011;72786;53.546;9.910;2023-10-19T06:00:15;25.08;;;11.48;;
82985;SDS011;72786;53.546;9.910;2023-10-19T06:02:43;20.70;;;9.75;;
82985;SDS011;72786;53.546;9.910;2023-10-19T06:05:15;22.23;;;9.88;;
82985;SDS011;72786;53.546;9.910;2023-10-19T06:07:43;23.83;;;10.40;;
82985;SDS011;72786;53.546;9.910;2023-10-19T06:10:16;26.83;;;11.15;;
82985;SDS011;72786;53.546;9.910;2023-10-19T06:12:44;22.88;;;10.57;;
82985;SDS011;72786;53.546;9.910;2023-10-19T06:15:12;23.60;;;10.55;;
82985;SDS011;72786;53.546;9.910;2023-10-19T06:17:39;24.38;;;10.38;;
82985;SDS011;72786;53.546;9.910;2023-10-19T06:20:08;21.25;;;9.55;;
82985;SDS011;72786;53.546;9.910;2023-10-19T06:22:46;25.00;;;9.65;;
82985;SDS011;72786;53.546;9.910;2023-10-19T06:25:17;23.75;;;10.32;;
82985;SDS011;72786;53.546;9.910;2023-10-19T06:27:45;21.52;;;9.95;;
82985;SDS011;72786;53.546;9.910;2023-10-19T06:30:13;21.85;;;10.35;;
82985;SDS011;72786;53.546;9.910;2023-10-19T06:32:46;23.85;;;10.43;;
82985;SDS011;72786;53.546;9.910;2023-10-19T06:35:14;24.83;;;10.63;;
82985;SDS011;72786;53.546;9.910;2023-10-19T06:37:41;26.70;;;10.85;;
82985;SDS011;72786;53.546;9.910;2023-10-19T06:40:07;21.17;;;10.20;;
82985;SDS011;72786;53.546;9.910;2023-10-19T06:42:34;23.40;;;10.65;;
82985;SDS011;72786;53.546;9.910;2023-10-19T06:45:01;21.92;;;10.23;;
82985;SDS011;72786;53.546;9.910;2023-10-19T06:47:28;23.80;;;10.77;;
82985;SDS011;72786;53.546;9.910;2023-10-19T06:49:55;28.02;;;11.18;;
82985;SDS011;72786;53.546;9.910;2023-10-19T06:52:23;20.95;;;10.15;;
82985;SDS011;72786;53.546;9.910;2023-10-19T06:54:49;22.75;;;9.98;;
82985;SDS011;72786;53.546;9.910;2023-10-19T06:57:16;26.05;;;11.07;;
82985;SDS011;72786;53.546;9.910;2023-10-19T06:59:42;23.35;;;10.07;;
82985;SDS011;72786;53.546;9.910;2023-10-19T07:02:09;26.50;;;11.07;;
82985;SDS011;72786;53.546;9.910;2023-10-19T07:04:36;24.50;;;10.40;;
82985;SDS011;72786;53.546;9.910;2023-10-19T07:07:03;20.30;;;9.35;;
82985;SDS011;72786;53.546;9.910;2023-10-19T07:09:30;23.95;;;11.02;;
82985;SDS011;72786;53.546;9.910;2023-10-19T07:11:56;24.65;;;11.55;;
82985;SDS011;72786;53.546;9.910;2023-10-19T07:14:23;22.33;;;10.70;;
82985;SDS011;72786;53.546;9.910;2023-10-19T07:16:49;20.00;;;8.88;;
82985;SDS011;72786;53.546;9.910;2023-10-19T07:19:17;27.55;;;10.75;;
82985;SDS011;72786;53.546;9.910;2023-10-19T07:21:45;23.95;;;10.77;;
82985;SDS011;72786;53.546;9.910;2023-10-19T07:24:15;22.90;;;11.25;;
82985;SDS011;72786;53.546;9.910;2023-10-19T07:26:45;24.10;;;10.50;;
82985;SDS011;72786;53.546;9.910;2023-10-19T07:29:20;20.42;;;10.70;;
82985;SDS011;72786;53.546;9.910;2023-10-19T07:31:47;21.52;;;10.15;;
82985;SDS011;72786;53.546;9.910;2023-10-19T07:34:13;22.35;;;9.90;;
82985;SDS011;72786;53.546;9.910;2023-10-19T07:36:42;27.23;;;10.45;;
82985;SDS011;72786;53.546;9.910;2023-10-19T07:39:09;24.85;;;11.98;;
82985;SDS011;72786;53.546;9.910;2023-10-19T07:41:40;24.77;;;11.13;;
82985;SDS011;72786;53.546;9.910;2023-10-19T07:44:06;21.67;;;10.25;;
82985;SDS011;72786;53.546;9.910;2023-10-19T07:46:34;23.05;;;10.75;;
82985;SDS011;72786;53.546;9.910;2023-10-19T07:49:00;22.70;;;9.93;;
82985;SDS011;72786;53.546;9.910;2023-10-19T07:51:29;19.38;;;9.73;;
82985;SDS011;72786;53.546;9.910;2023-10-19T07:53:56;20.83;;;10.38;;
82985;SDS011;72786;53.546;9.910;2023-10-19T07:56:23;23.52;;;10.88;;
82985;SDS011;72786;53.546;9.910;2023-10-19T07:58:50;27.70;;;11.13;;
82985;SDS011;72786;53.546;9.910;2023-10-19T08:01:16;24.23;;;10.00;;
82985;SDS011;72786;53.546;9.910;2023-10-19T08:03:43;21.33;;;10.15;;
82985;SDS011;72786;53.546;9.910;2023-10-19T08:06:09;23.48;;;11.18;;
82985;SDS011;72786;53.546;9.910;2023-10-19T08:08:36;24.77;;;10.38;;
82985;SDS011;72786;53.546;9.910;2023-10-19T08:11:03;25.15;;;11.20;;
82985;SDS011;72786;53.546;9.910;2023-10-19T08:13:29;44.28;;;18.23;;
82985;SDS011;72786;53.546;9.910;2023-10-19T08:15:58;25.70;;;10.15;;
82985;SDS011;72786;53.546;9.910;2023-10-19T08:18:24;23.13;;;10.68;;
82985;SDS011;72786;53.546;9.910;2023-10-19T08:20:51;21.95;;;10.40;;
82985;SDS011;72786;53.546;9.910;2023-10-19T08:23:17;21.15;;;10.95;;
82985;SDS011;72786;53.546;9.910;2023-10-19T08:25:49;24.95;;;10.90;;
82985;SDS011;72786;53.546;9.910;2023-10-19T08:28:22;21.08;;;10.50;;
82985;SDS011;72786;53.546;9.910;2023-10-19T08:30:49;24.90;;;11.52;;
82985;SDS011;72786;53.546;9.910;2023-10-19T08:33:29;22.55;;;10.73;;
82985;SDS011;72786;53.546;9.910;2023-10-19T08:35:56;24.20;;;11.15;;
82985;SDS011;72786;53.546;9.910;2023-10-19T08:38:23;20.85;;;9.80;;
82985;SDS011;72786;53.546;9.910;2023-10-19T08:40:49;24.05;;;11.40;;
82985;SDS011;72786;53.546;9.910;2023-10-19T08:43:17;25.15;;;11.20;;
82985;SDS011;72786;53.546;9.910;2023-10-19T08:45:45;25.20;;;10.90;;
82985;SDS011;72786;53.546;9.910;2023-10-19T08:48:12;22.48;;;11.43;;
82985;SDS011;72786;53.546;9.910;2023-10-19T08:50:40;24.80;;;11.57;;
82985;SDS011;72786;53.546;9.910;2023-10-19T08:53:10;25.33;;;11.15;;
82985;SDS011;72786;53.546;9.910;2023-10-19T08:55:40;24.80;;;10.63;;
82985;SDS011;72786;53.546;9.910;2023-10-19T08:58:15;25.40;;;11.93;;
82985;SDS011;72786;53.546;9.910;2023-10-19T09:00:48;25.05;;;11.73;;
82985;SDS011;72786;53.546;9.910;2023-10-19T09:03:18;25.48;;;11.90;;
82985;SDS011;72786;53.546;9.910;2023-10-19T09:05:45;23.35;;;10.75;;
82985;SDS011;72786;53.546;9.910;2023-10-19T09:08:13;22.05;;;10.50;;
82985;SDS011;72786;53.546;9.910;2023-10-19T09:10:44;25.05;;;10.82;;
82985;SDS011;72786;53.546;9.910;2023-10-19T09:13:12;25.98;;;11.23;;
82985;SDS011;72786;53.546;9.910;2023-10-19T09:15:42;27.90;;;13.02;;
82985;SDS011;72786;53.546;9.910;2023-10-19T09:18:12;25.17;;;11.80;;
82985;SDS011;72786;53.546;9.910;2023-10-19T09:20:47;24.65;;;11.45;;
82985;SDS011;72786;53.546;9.910;2023-10-19T09:23:28;25.10;;;11.15;;
82985;SDS011;72786;53.546;9.910;2023-10-19T09:25:56;24.75;;;11.68;;
82985;SDS011;72786;53.546;9.910;2023-10-19T09:28:24;25.30;;;11.95;;
82985;SDS011;72786;53.546;9.910;2023-10-19T09:30:51;24.90;;;11.77;;
82985;SDS011;72786;53.546;9.910;2023-10-19T09:33:20;22.92;;;11.10;;
82985;SDS011;72786;53.546;9.910;2023-10-19T09:35:50;24.48;;;11.70;;
82985;SDS011;72786;53.546;9.910;2023-10-19T09:38:22;25.75;;;12.23;;
82985;SDS011;72786;53.546;9.910;2023-10-19T09:40:49;23.58;;;11.98;;
82985;SDS011;72786;53.546;9.910;2023-10-19T09:43:41;24.08;;;11.90;;
82985;SDS011;72786;53.546;9.910;2023-10-19T09:46:11;26.33;;;11.85;;
82985;SDS011;72786;53.546;9.910;2023-10-19T09:48:42;27.85;;;12.13;;
82985;SDS011;72786;53.546;9.910;2023-10-19T09:51:14;24.33;;;11.88;;
82985;SDS011;72786;53.546;9.910;2023-10-19T09:53:44;26.60;;;11.70;;
82985;SDS011;72786;53.546;9.910;2023-10-19T09:56:15;23.67;;;12.20;;
82985;SDS011;72786;53.546;9.910;2023-10-19T09:59:34;25.67;;;12.63;;
82985;SDS011;72786;53.546;9.910;2023-10-19T10:04:41;26.00;;;11.95;;
82985;SDS011;72786;53.546;9.910;2023-10-19T10:07:11;27.55;;;12.65;;
82985;SDS011;72786;53.546;9.910;2023-10-19T10:09:38;28.75;;;13.85;;
82985;SDS011;72786;53.546;9.910;2023-10-19T10:12:16;26.35;;;12.93;;
82985;SDS011;72786;53.546;9.910;2023-10-19T10:14:58;26.60;;;12.27;;
82985;SDS011;72786;53.546;9.910;2023-10-19T10:17:36;28.80;;;13.25;;
82985;SDS011;72786;53.546;9.910;2023-10-19T10:22:37;24.98;;;13.10;;
82985;SDS011;72786;53.546;9.910;2023-10-19T10:25:03;31.05;;;15.57;;
82985;SDS011;72786;53.546;9.910;2023-10-19T10:27:31;26.38;;;12.20;;
82985;SDS011;72786;53.546;9.910;2023-10-19T10:29:58;29.92;;;13.55;;
82985;SDS011;72786;53.546;9.910;2023-10-19T10:38:05;30.23;;;14.75;;
82985;SDS011;72786;53.546;9.910;2023-10-19T10:40:47;25.58;;;12.80;;
82985;SDS011;72786;53.546;9.910;2023-10-19T10:43:16;29.40;;;12.93;;
82985;SDS011;72786;53.546;9.910;2023-10-19T10:45:44;28.95;;;14.70;;
82985;SDS011;72786;53.546;9.910;2023-10-19T10:48:11;26.60;;;13.40;;
82985;SDS011;72786;53.546;9.910;2023-10-19T10:50:38;27.80;;;13.60;;
82985;SDS011;72786;53.546;9.910;2023-10-19T10:53:05;29.33;;;13.73;;
82985;SDS011;72786;53.546;9.910;2023-10-19T10:55:32;25.17;;;12.85;;
82985;SDS011;72786;53.546;9.910;2023-10-19T10:57:58;28.65;;;13.65;;
82985;SDS011;72786;53.546;9.910;2023-10-19T11:00:25;27.55;;;13.77;;
82985;SDS011;72786;53.546;9.910;2023-10-19T11:03:06;27.90;;;13.77;;
82985;SDS011;72786;53.546;9.910;2023-10-19T11:05:36;27.75;;;13.13;;
82985;SDS011;72786;53.546;9.910;2023-10-19T11:08:08;27.40;;;13.30;;
82985;SDS011;72786;53.546;9.910;2023-10-19T11:10:40;30.23;;;15.07;;
82985;SDS011;72786;53.546;9.910;2023-10-19T11:13:09;26.00;;;13.35;;
82985;SDS011;72786;53.546;9.910;2023-10-19T11:15:37;30.13;;;14.48;;
82985;SDS011;72786;53.546;9.910;2023-10-19T11:18:05;30.40;;;15.25;;
82985;SDS011;72786;53.546;9.910;2023-10-19T11:20:36;31.10;;;13.38;;
82985;SDS011;72786;53.546;9.910;2023-10-19T11:23:02;27.23;;;13.23;;
82985;SDS011;72786;53.546;9.910;2023-10-19T11:25:30;29.98;;;13.35;;
82985;SDS011;72786;53.546;9.910;2023-10-19T11:27:58;24.48;;;12.55;;
82985;SDS011;72786;53.546;9.910;2023-10-19T11:30:27;23.60;;;11.82;;
82985;SDS011;72786;53.546;9.910;2023-10-19T11:32:55;29.17;;;13.82;;
82985;SDS011;72786;53.546;9.910;2023-10-19T11:35:29;26.17;;;13.38;;
82985;SDS011;72786;53.546;9.910;2023-10-19T11:37:58;26.77;;;13.18;;
82985;SDS011;72786;53.546;9.910;2023-10-19T11:40:27;30.00;;;14.50;;
82985;SDS011;72786;53.546;9.910;2023-10-19T11:42:54;34.42;;;15.65;;
82985;SDS011;72786;53.546;9.910;2023-10-19T11:45:26;27.55;;;12.88;;
82985;SDS011;72786;53.546;9.910;2023-10-19T11:47:53;27.45;;;13.15;;
82985;SDS011;72786;53.546;9.910;2023-10-19T11:50:21;28.25;;;13.13;;
82985;SDS011;72786;53.546;9.910;2023-10-19T11:52:47;33.65;;;16.95;;
82985;SDS011;72786;53.546;9.910;2023-10-19T11:55:15;29.50;;;14.32;;
82985;SDS011;72786;53.546;9.910;2023-10-19T11:57:42;28.52;;;13.75;;
82985;SDS011;72786;53.546;9.910;2023-10-19T12:00:10;30.77;;;14.80;;
82985;SDS011;72786;53.546;9.910;2023-10-19T12:02:41;31.13;;;14.93;;
82985;SDS011;72786;53.546;9.910;2023-10-19T12:05:08;25.90;;;13.48;;
82985;SDS011;72786;53.546;9.910;2023-10-19T12:07:38;26.73;;;13.50;;
82985;SDS011;72786;53.546;9.910;2023-10-19T12:10:07;26.67;;;13.00;;
82985;SDS011;72786;53.546;9.910;2023-10-19T12:12:34;29.35;;;14.13;;
82985;SDS011;72786;53.546;9.910;2023-10-19T12:15:21;27.27;;;12.95;;
82985;SDS011;72786;53.546;9.910;2023-10-19T12:17:48;31.20;;;14.05;;
82985;SDS011;72786;53.546;9.910;2023-10-19T12:20:17;29.92;;;13.10;;
82985;SDS011;72786;53.546;9.910;2023-10-19T12:22:48;25.92;;;13.10;;
82985;SDS011;72786;53.546;9.910;2023-10-19T12:25:14;29.77;;;13.73;;
82985;SDS011;72786;53.546;9.910;2023-10-19T12:27:41;26.20;;;12.60;;
82985;SDS011;72786;53.546;9.910;2023-10-19T12:30:07;27.70;;;13.57;;
82985;SDS011;72786;53.546;9.910;2023-10-19T12:32:46;28.33;;;13.73;;
82985;SDS011;72786;53.546;9.910;2023-10-19T12:35:15;26.92;;;13.90;;
82985;SDS011;72786;53.546;9.910;2023-10-19T12:37:44;28.27;;;13.05;;
82985;SDS011;72786;53.546;9.910;2023-10-19T12:40:18;23.85;;;12.18;;
82985;SDS011;72786;53.546;9.910;2023-10-19T12:42:55;25.05;;;12.57;;
82985;SDS011;72786;53.546;9.910;2023-10-19T12:45:22;26.95;;;12.90;;
82985;SDS011;72786;53.546;9.910;2023-10-19T12:47:48;26.48;;;13.30;;
82985;SDS011;72786;53.546;9.910;2023-10-19T12:50:15;27.13;;;13.20;;
82985;SDS011;72786;53.546;9.910;2023-10-19T12:52:42;28.48;;;13.90;;
82985;SDS011;72786;53.546;9.910;2023-10-19T12:55:08;27.20;;;13.32;;
82985;SDS011;72786;53.546;9.910;2023-10-19T12:57:35;26.92;;;12.70;;
82985;SDS011;72786;53.546;9.910;2023-10-19T13:00:01;26.35;;;12.50;;
82985;SDS011;72786;53.546;9.910;2023-10-19T13:02:47;32.72;;;13.85;;
82985;SDS011;72786;53.546;9.910;2023-10-19T13:05:14;24.95;;;12.80;;
82985;SDS011;72786;53.546;9.910;2023-10-19T13:07:44;34.13;;;16.85;;
82985;SDS011;72786;53.546;9.910;2023-10-19T13:10:11;25.00;;;11.73;;
82985;SDS011;72786;53.546;9.910;2023-10-19T13:12:37;26.85;;;12.48;;
82985;SDS011;72786;53.546;9.910;2023-10-19T13:15:04;27.75;;;13.27;;
82985;SDS011;72786;53.546;9.910;2023-10-19T13:17:39;25.90;;;12.18;;
82985;SDS011;72786;53.546;9.910;2023-10-19T13:20:06;27.60;;;13.40;;
82985;SDS011;72786;53.546;9.910;2023-10-19T13:22:42;28.58;;;14.68;;
82985;SDS011;72786;53.546;9.910;2023-10-19T13:25:09;30.15;;;14.85;;
82985;SDS011;72786;53.546;9.910;2023-10-19T13:27:39;24.30;;;12.63;;
82985;SDS011;72786;53.546;9.910;2023-10-19T13:30:08;29.83;;;13.00;;
82985;SDS011;72786;53.546;9.910;2023-10-19T13:32:38;27.50;;;13.10;;
82985;SDS011;72786;53.546;9.910;2023-10-19T13:35:05;29.40;;;13.60;;
82985;SDS011;72786;53.546;9.910;2023-10-19T13:37:33;26.83;;;14.25;;
82985;SDS011;72786;53.546;9.910;2023-10-19T13:39:59;25.98;;;12.52;;
82985;SDS011;72786;53.546;9.910;2023-10-19T13:42:26;27.20;;;13.32;;
82985;SDS011;72786;53.546;9.910;2023-10-19T13:44:53;29.38;;;13.70;;
82985;SDS011;72786;53.546;9.910;2023-10-19T13:47:19;27.00;;;13.25;;
82985;SDS011;72786;53.546;9.910;2023-10-19T13:49:46;26.70;;;12.73;;
82985;SDS011;72786;53.546;9.910;2023-10-19T13:52:13;24.50;;;12.50;;
82985;SDS011;72786;53.546;9.910;2023-10-19T13:54:41;23.20;;;12.02;;
82985;SDS011;72786;53.546;9.910;2023-10-19T13:57:07;29.52;;;12.65;;
82985;SDS011;72786;53.546;9.910;2023-10-19T13:59:34;23.02;;;11.68;;
82985;SDS011;72786;53.546;9.910;2023-10-19T14:02:01;25.02;;;12.82;;
82985;SDS011;72786;53.546;9.910;2023-10-19T14:04:28;25.13;;;12.40;;
82985;SDS011;72786;53.546;9.910;2023-10-19T14:06:54;23.48;;;11.57;;
82985;SDS011;72786;53.546;9.910;2023-10-19T14:09:20;23.42;;;11.90;;
82985;SDS011;72786;53.546;9.910;2023-10-19T14:11:49;26.73;;;12.48;;
82985;SDS011;72786;53.546;9.910;2023-10-19T14:14:16;24.50;;;13.02;;
82985;SDS011;72786;53.546;9.910;2023-10-19T14:16:42;21.17;;;11.35;;
82985;SDS011;72786;53.546;9.910;2023-10-19T14:19:10;21.67;;;11.05;;
82985;SDS011;72786;53.546;9.910;2023-10-19T14:21:37;23.42;;;11.60;;
82985;SDS011;72786;53.546;9.910;2023-10-19T14:24:06;27.45;;;12.30;;
82985;SDS011;72786;53.546;9.910;2023-10-19T14:26:34;23.23;;;11.48;;
82985;SDS011;72786;53.546;9.910;2023-10-19T14:29:01;22.58;;;11.52;;
82985;SDS011;72786;53.546;9.910;2023-10-19T14:31:27;27.50;;;13.32;;
82985;SDS011;72786;53.546;9.910;2023-10-19T14:33:55;25.25;;;12.55;;
82985;SDS011;72786;53.546;9.910;2023-10-19T14:36:21;26.52;;;12.77;;
82985;SDS011;72786;53.546;9.910;2023-10-19T14:38:48;24.55;;;11.93;;
82985;SDS011;72786;53.546;9.910;2023-10-19T14:41:15;24.10;;;11.70;;
82985;SDS011;72786;53.546;9.910;2023-10-19T14:43:42;23.17;;;11.63;;
82985;SDS011;72786;53.546;9.910;2023-10-19T14:46:08;22.02;;;10.80;;
82985;SDS011;72786;53.546;9.910;2023-10-19T14:48:35;23.98;;;12.40;;